sensor_id;sensor_type;location;lat;lon;timestamp;pressure;altitude;pressure_sealevel;temperature;humidity
59329;BME280;45100;46.926;7.452;2023-05-16T00:00:09;94957.38;;;10.20;100.00
59329;BME280;45100;46.926;7.452;2023-05-16T00:05:16;94953.08;;;10.21;100.00
59329;BME280;45100;46.926;7.452;2023-05-16T00:10:16;94948.67;;;10.21;100.00
59329;BME280;45100;46.926;7.452;2023-05-16T00:15:24;94942.05;;;10.27;100.00
59329;BME280;45100;46.926;7.452;2023-05-16T00:17:58;94939.81;;;10.30;100.00
59329;BME280;45100;46.926;7.452;2023-05-16T00:22:55;94940.74;;;10.33;100.00
59329;BME280;45100;46.926;7.452;2023-05-16T00:25:25;94944.92;;;10.35;100.00
59329;BME280;45100;46.926;7.452;2023-05-16T00:27:55;94938.97;;;10.36;100.00
59329;BME280;45100;46.926;7.452;2023-05-16T00:30:26;94936.26;;;10.35;100.00
59329;BME280;45100;46.926;7.452;2023-05-16T00:32:57;94932.20;;;10.34;100.00
59329;BME280;45100;46.926;7.452;2023-05-16T00:35:28;94930.27;;;10.31;100.00
59329;BME280;45100;46.926;7.452;2023-05-16T00:37:59;94934.84;;;10.30;100.00
59329;BME280;45100;46.926;7.452;2023-05-16T00:40:30;94938.22;;;10.28;100.00
59329;BME280;45100;46.926;7.452;2023-05-16T00:43:00;94935.75;;;10.27;100.00
59329;BME280;45100;46.926;7.452;2023-05-16T00:45:30;94932.15;;;10.26;100.00
59329;BME280;45100;46.926;7.452;2023-05-16T00:48:01;94934.18;;;10.26;100.00
59329;BME280;45100;46.926;7.452;2023-05-16T00:50:33;94929.13;;;10.27;100.00
59329;BME280;45100;46.926;7.452;2023-05-16T00:53:03;94933.52;;;10.28;100.00
59329;BME280;45100;46.926;7.452;2023-05-16T00:55:33;94938.42;;;10.28;100.00
59329;BME280;45100;46.926;7.452;2023-05-16T00:58:04;94932.04;;;10.29;100.00
59329;BME280;45100;46.926;7.452;2023-05-16T01:00:33;94934.70;;;10.30;100.00
59329;BME280;45100;46.926;7.452;2023-05-16T01:03:04;94930.12;;;10.30;100.00
59329;BME280;45100;46.926;7.452;2023-05-16T01:05:34;94927.66;;;10.29;100.00
59329;BME280;45100;46.926;7.452;2023-05-16T01:08:05;94928.52;;;10.28;100.00
59329;BME280;45100;46.926;7.452;2023-05-16T01:10:58;94928.76;;;10.26;100.00
59329;BME280;45100;46.926;7.452;2023-05-16T01:13:31;94922.45;;;10.22;100.00
59329;BME280;45100;46.926;7.452;2023-05-16T01:15:43;94923.73;;;10.18;100.00
59329;BME280;45100;46.926;7.452;2023-05-16T01:18:35;94921.34;;;10.12;100.00
59329;BME280;45100;46.926;7.452;2023-05-16T01:20:52;94919.95;;;10.10;100.00
59329;BME280;45100;46.926;7.452;2023-05-16T01:25:56;94916.14;;;10.10;100.00
59329;BME280;45100;46.926;7.452;2023-05-16T01:30:43;94915.31;;;10.14;100.00
59329;BME280;45100;46.926;7.452;2023-05-16T01:33:12;94916.04;;;10.15;100.00
59329;BME280;45100;46.926;7.452;2023-05-16T01:35:50;94915.15;;;10.17;100.00
59329;BME280;45100;46.926;7.452;2023-05-16T01:38:25;94912.55;;;10.18;100.00
59329;BME280;45100;46.926;7.452;2023-05-16T01:40:54;94911.41;;;10.19;100.00
59329;BME280;45100;46.926;7.452;2023-05-16T01:43:17;94915.16;;;10.21;100.00
59329;BME280;45100;46.926;7.452;2023-05-16T01:45:52;94911.78;;;10.23;100.00
59329;BME280;45100;46.926;7.452;2023-05-16T01:48:22;94915.84;;;10.24;100.00
59329;BME280;45100;46.926;7.452;2023-05-16T01:50:51;94909.48;;;10.25;100.00
59329;BME280;45100;46.926;7.452;2023-05-16T01:53:25;94914.80;;;10.26;100.00
59329;BME280;45100;46.926;7.452;2023-05-16T01:55:50;94910.95;;;10.27;100.00
59329;BME280;45100;46.926;7.452;2023-05-16T01:58:24;94909.38;;;10.27;100.00
59329;BME280;45100;46.926;7.452;2023-05-16T02:00:48;94913.97;;;10.24;100.00
59329;BME280;45100;46.926;7.452;2023-05-16T02:03:19;94908.96;;;10.21;100.00
59329;BME280;45100;46.926;7.452;2023-05-16T02:05:50;94908.44;;;10.19;100.00
59329;BME280;45100;46.926;7.452;2023-05-16T02:08:21;94902.25;;;10.18;100.00
59329;BME280;45100;46.926;7.452;2023-05-16T02:10:51;94903.48;;;10.17;100.00
59329;BME280;45100;46.926;7.452;2023-05-16T02:13:22;94902.03;;;10.17;100.00
59329;BME280;45100;46.926;7.452;2023-05-16T02:15:53;94900.50;;;10.18;100.00
59329;BME280;45100;46.926;7.452;2023-05-16T02:18:24;94900.20;;;10.19;100.00
59329;BME280;45100;46.926;7.452;2023-05-16T02:20:54;94899.40;;;10.19;100.00
59329;BME280;45100;46.926;7.452;2023-05-16T02:23:25;94900.16;;;10.20;100.00
59329;BME280;45100;46.926;7.452;2023-05-16T02:25:56;94903.47;;;10.21;100.00
59329;BME280;45100;46.926;7.452;2023-05-16T02:28:27;94906.12;;;10.18;100.00
59329;BME280;45100;46.926;7.452;2023-05-16T02:30:58;94903.18;;;10.14;100.00
59329;BME280;45100;46.926;7.452;2023-05-16T02:33:28;94903.50;;;10.11;100.00
59329;BME280;45100;46.926;7.452;2023-05-16T02:35:59;94899.95;;;10.08;100.00
59329;BME280;45100;46.926;7.452;2023-05-16T02:38:30;94896.72;;;10.03;100.00
59329;BME280;45100;46.926;7.452;2023-05-16T02:41:00;94896.67;;;9.99;100.00
59329;BME280;45100;46.926;7.452;2023-05-16T02:43:31;94890.64;;;9.94;100.00
59329;BME280;45100;46.926;7.452;2023-05-16T02:46:03;94888.91;;;9.90;100.00
59329;BME280;45100;46.926;7.452;2023-05-16T02:48:32;94893.41;;;9.88;100.00
59329;BME280;45100;46.926;7.452;2023-05-16T02:51:03;94892.48;;;9.88;100.00
59329;BME280;45100;46.926;7.452;2023-05-16T02:53:33;94889.56;;;9.89;100.00
59329;BME280;45100;46.926;7.452;2023-05-16T02:56:06;94882.98;;;9.91;100.00
59329;BME280;45100;46.926;7.452;2023-05-16T02:58:34;94882.75;;;9.92;100.00
59329;BME280;45100;46.926;7.452;2023-05-16T03:01:04;94878.91;;;9.94;100.00
59329;BME280;45100;46.926;7.452;2023-05-16T03:03:36;94879.10;;;9.95;100.00
59329;BME280;45100;46.926;7.452;2023-05-16T03:06:06;94881.40;;;9.97;100.00
59329;BME280;45100;46.926;7.452;2023-05-16T03:08:37;94882.30;;;9.97;100.00
59329;BME280;45100;46.926;7.452;2023-05-16T03:11:07;94881.60;;;9.96;100.00
59329;BME280;45100;46.926;7.452;2023-05-16T03:13:38;94878.76;;;9.97;100.00
59329;BME280;45100;46.926;7.452;2023-05-16T03:16:08;94875.43;;;9.97;100.00
59329;BME280;45100;46.926;7.452;2023-05-16T03:18:40;94872.52;;;9.97;100.00
59329;BME280;45100;46.926;7.452;2023-05-16T03:21:10;94873.80;;;9.96;100.00
59329;BME280;45100;46.926;7.452;2023-05-16T03:23:39;94871.45;;;9.95;100.00
59329;BME280;45100;46.926;7.452;2023-05-16T03:26:10;94869.09;;;9.95;100.00
59329;BME280;45100;46.926;7.452;2023-05-16T03:28:40;94869.73;;;9.95;100.00
59329;BME280;45100;46.926;7.452;2023-05-16T03:31:11;94869.47;;;9.96;100.00
59329;BME280;45100;46.926;7.452;2023-05-16T03:33:42;94870.20;;;9.97;100.00
59329;BME280;45100;46.926;7.452;2023-05-16T03:36:13;94866.62;;;9.96;100.00
59329;BME280;45100;46.926;7.452;2023-05-16T03:38:43;94863.36;;;9.94;100.00
59329;BME280;45100;46.926;7.452;2023-05-16T03:41:13;94868.62;;;9.94;100.00
59329;BME280;45100;46.926;7.452;2023-05-16T03:43:44;94863.46;;;9.94;100.00
59329;BME280;45100;46.926;7.452;2023-05-16T03:46:15;94869.38;;;9.93;100.00
59329;BME280;45100;46.926;7.452;2023-05-16T03:48:47;94865.11;;;9.93;100.00
59329;BME280;45100;46.926;7.452;2023-05-16T03:51:16;94861.16;;;9.92;100.00
59329;BME280;45100;46.926;7.452;2023-05-16T03:53:47;94866.39;;;9.92;100.00
59329;BME280;45100;46.926;7.452;2023-05-16T03:56:18;94870.53;;;9.92;100.00
59329;BME280;45100;46.926;7.452;2023-05-16T03:58:47;94873.20;;;9.91;100.00
59329;BME280;45100;46.926;7.452;2023-05-16T04:01:18;94878.64;;;9.90;100.00
59329;BME280;45100;46.926;7.452;2023-05-16T04:03:51;94876.22;;;9.87;100.00
59329;BME280;45100;46.926;7.452;2023-05-16T04:06:21;94876.52;;;9.86;100.00
59329;BME280;45100;46.926;7.452;2023-05-16T04:08:50;94877.49;;;9.86;100.00
59329;BME280;45100;46.926;7.452;2023-05-16T04:11:21;94878.26;;;9.87;100.00
59329;BME280;45100;46.926;7.452;2023-05-16T04:13:53;94882.97;;;9.88;100.00
59329;BME280;45100;46.926;7.452;2023-05-16T04:16:22;94890.00;;;9.88;100.00
59329;BME280;45100;46.926;7.452;2023-05-16T04:18:53;94890.27;;;9.87;100.00
59329;BME280;45100;46.926;7.452;2023-05-16T04:21:23;94888.98;;;9.83;100.00
59329;BME280;45100;46.926;7.452;2023-05-16T04:26:27;94891.52;;;9.83;100.00
59329;BME280;45100;46.926;7.452;2023-05-16T04:28:58;94892.52;;;9.85;100.00
59329;BME280;45100;46.926;7.452;2023-05-16T04:31:28;94892.80;;;9.85;100.00
59329;BME280;45100;46.926;7.452;2023-05-16T04:33:58;94894.75;;;9.88;100.00
59329;BME280;45100;46.926;7.452;2023-05-16T04:39:04;94897.12;;;9.93;100.00
59329;BME280;45100;46.926;7.452;2023-05-16T04:41:35;94896.11;;;9.95;100.00
59329;BME280;45100;46.926;7.452;2023-05-16T04:44:04;94894.44;;;9.97;100.00
59329;BME280;45100;46.926;7.452;2023-05-16T04:46:35;94892.22;;;10.00;100.00
59329;BME280;45100;46.926;7.452;2023-05-16T04:49:05;94892.42;;;10.01;100.00
59329;BME280;45100;46.926;7.452;2023-05-16T04:51:36;94891.53;;;10.00;100.00
59329;BME280;45100;46.926;7.452;2023-05-16T04:54:08;94888.00;;;10.01;100.00
59329;BME280;45100;46.926;7.452;2023-05-16T04:56:37;94887.11;;;10.00;100.00
59329;BME280;45100;46.926;7.452;2023-05-16T04:59:08;94890.36;;;9.98;100.00
59329;BME280;45100;46.926;7.452;2023-05-16T05:01:39;94894.89;;;9.97;100.00
59329;BME280;45100;46.926;7.452;2023-05-16T05:04:10;94896.41;;;9.97;100.00
59329;BME280;45100;46.926;7.452;2023-05-16T05:06:41;94897.36;;;9.98;100.00
59329;BME280;45100;46.926;7.452;2023-05-16T05:09:11;94901.98;;;10.01;100.00
59329;BME280;45100;46.926;7.452;2023-05-16T05:11:41;94905.11;;;10.03;100.00
59329;BME280;45100;46.926;7.452;2023-05-16T05:14:12;94899.62;;;10.06;100.00
59329;BME280;45100;46.926;7.452;2023-05-16T05:16:43;94903.16;;;10.08;100.00
59329;BME280;45100;46.926;7.452;2023-05-16T05:19:14;94906.19;;;10.08;100.00
59329;BME280;45100;46.926;7.452;2023-05-16T05:21:45;94904.33;;;10.09;100.00
59329;BME280;45100;46.926;7.452;2023-05-16T05:24:16;94901.14;;;10.11;100.00
59329;BME280;45100;46.926;7.452;2023-05-16T05:26:47;94901.58;;;10.13;100.00
59329;BME280;45100;46.926;7.452;2023-05-16T05:29:18;94900.48;;;10.15;100.00
59329;BME280;45100;46.926;7.452;2023-05-16T05:31:48;94899.38;;;10.18;100.00
59329;BME280;45100;46.926;7.452;2023-05-16T05:34:19;94903.07;;;10.22;100.00
59329;BME280;45100;46.926;7.452;2023-05-16T05:36:50;94905.59;;;10.26;100.00
59329;BME280;45100;46.926;7.452;2023-05-16T05:39:21;94905.21;;;10.29;100.00
59329;BME280;45100;46.926;7.452;2023-05-16T05:41:52;94907.91;;;10.30;100.00
59329;BME280;45100;46.926;7.452;2023-05-16T05:44:23;94908.97;;;10.35;100.00
59329;BME280;45100;46.926;7.452;2023-05-16T05:46:54;94904.30;;;10.39;100.00
59329;BME280;45100;46.926;7.452;2023-05-16T05:49:25;94903.52;;;10.42;100.00
59329;BME280;45100;46.926;7.452;2023-05-16T05:51:55;94900.75;;;10.43;100.00
59329;BME280;45100;46.926;7.452;2023-05-16T05:54:26;94905.94;;;10.45;100.00
59329;BME280;45100;46.926;7.452;2023-05-16T05:56:56;94907.02;;;10.48;100.00
59329;BME280;45100;46.926;7.452;2023-05-16T05:59:27;94903.59;;;10.53;100.00
59329;BME280;45100;46.926;7.452;2023-05-16T06:01:58;94903.43;;;10.58;100.00
59329;BME280;45100;46.926;7.452;2023-05-16T06:04:27;94905.98;;;10.62;100.00
59329;BME280;45100;46.926;7.452;2023-05-16T06:06:58;94905.45;;;10.65;100.00
59329;BME280;45100;46.926;7.452;2023-05-16T06:09:28;94904.84;;;10.69;100.00
59329;BME280;45100;46.926;7.452;2023-05-16T06:11:59;94904.45;;;10.74;100.00
59329;BME280;45100;46.926;7.452;2023-05-16T06:14:29;94902.61;;;10.78;100.00
59329;BME280;45100;46.926;7.452;2023-05-16T06:17:00;94906.68;;;10.85;100.00
59329;BME280;45100;46.926;7.452;2023-05-16T06:19:30;94907.68;;;10.92;100.00
59329;BME280;45100;46.926;7.452;2023-05-16T06:22:01;94909.80;;;11.01;100.00
59329;BME280;45100;46.926;7.452;2023-05-16T06:24:32;94909.48;;;11.08;100.00
59329;BME280;45100;46.926;7.452;2023-05-16T06:27:03;94909.98;;;11.16;100.00
59329;BME280;45100;46.926;7.452;2023-05-16T06:29:33;94909.77;;;11.23;100.00
59329;BME280;45100;46.926;7.452;2023-05-16T06:32:03;94909.48;;;11.30;100.00
59329;BME280;45100;46.926;7.452;2023-05-16T06:34:33;94912.28;;;11.37;100.00
59329;BME280;45100;46.926;7.452;2023-05-16T06:37:04;94913.99;;;11.39;98.75
59329;BME280;45100;46.926;7.452;2023-05-16T06:39:35;94915.60;;;11.38;98.12
59329;BME280;45100;46.926;7.452;2023-05-16T06:42:06;94911.70;;;11.38;98.19
59329;BME280;45100;46.926;7.452;2023-05-16T06:44:35;94912.03;;;11.40;97.68
59329;BME280;45100;46.926;7.452;2023-05-16T06:47:06;94916.31;;;11.39;96.57
59329;BME280;45100;46.926;7.452;2023-05-16T06:49:36;94920.95;;;11.36;96.76
59329;BME280;45100;46.926;7.452;2023-05-16T06:52:07;94923.62;;;11.34;97.50
59329;BME280;45100;46.926;7.452;2023-05-16T06:54:38;94919.73;;;11.32;97.58
59329;BME280;45100;46.926;7.452;2023-05-16T06:57:09;94924.88;;;11.27;97.16
59329;BME280;45100;46.926;7.452;2023-05-16T06:59:40;94925.60;;;11.22;97.17
59329;BME280;45100;46.926;7.452;2023-05-16T07:02:11;94923.44;;;11.16;96.93
59329;BME280;45100;46.926;7.452;2023-05-16T07:04:41;94924.19;;;11.11;96.85
59329;BME280;45100;46.926;7.452;2023-05-16T07:07:13;94925.62;;;11.06;96.90
59329;BME280;45100;46.926;7.452;2023-05-16T07:09:41;94926.62;;;11.02;97.06
59329;BME280;45100;46.926;7.452;2023-05-16T07:12:13;94931.59;;;11.00;97.47
59329;BME280;45100;46.926;7.452;2023-05-16T07:14:43;94928.77;;;10.99;97.89
59329;BME280;45100;46.926;7.452;2023-05-16T07:17:15;94929.95;;;10.98;98.09
59329;BME280;45100;46.926;7.452;2023-05-16T07:19:45;94928.33;;;10.96;97.88
59329;BME280;45100;46.926;7.452;2023-05-16T07:22:16;94932.42;;;10.95;98.17
59329;BME280;45100;46.926;7.452;2023-05-16T07:24:47;94933.12;;;10.93;97.99
59329;BME280;45100;46.926;7.452;2023-05-16T07:29:51;94931.97;;;10.89;98.03
59329;BME280;45100;46.926;7.452;2023-05-16T07:32:21;94935.71;;;10.85;98.27
59329;BME280;45100;46.926;7.452;2023-05-16T07:34:52;94939.11;;;10.82;98.42
59329;BME280;45100;46.926;7.452;2023-05-16T07:37:21;94940.75;;;10.78;98.56
59329;BME280;45100;46.926;7.452;2023-05-16T07:39:52;94939.91;;;10.74;98.30
59329;BME280;45100;46.926;7.452;2023-05-16T07:42:23;94945.62;;;10.70;98.49
59329;BME280;45100;46.926;7.452;2023-05-16T07:44:53;94946.84;;;10.69;99.09
59329;BME280;45100;46.926;7.452;2023-05-16T07:47:24;94944.07;;;10.70;99.27
59329;BME280;45100;46.926;7.452;2023-05-16T07:49:55;94943.84;;;10.72;98.94
59329;BME280;45100;46.926;7.452;2023-05-16T07:52:26;94949.42;;;10.76;98.93
59329;BME280;45100;46.926;7.452;2023-05-16T07:54:57;94946.48;;;10.80;99.34
59329;BME280;45100;46.926;7.452;2023-05-16T07:57:27;94950.58;;;10.85;99.32
59329;BME280;45100;46.926;7.452;2023-05-16T07:59:57;94955.83;;;10.88;99.09
59329;BME280;45100;46.926;7.452;2023-05-16T08:02:30;94956.22;;;10.90;99.07
59329;BME280;45100;46.926;7.452;2023-05-16T08:04:59;94957.86;;;10.91;98.52
59329;BME280;45100;46.926;7.452;2023-05-16T08:07:31;94951.64;;;10.92;98.28
59329;BME280;45100;46.926;7.452;2023-05-16T08:10:01;94950.91;;;10.93;96.93
59329;BME280;45100;46.926;7.452;2023-05-16T08:12:31;94952.19;;;10.96;96.87
59329;BME280;45100;46.926;7.452;2023-05-16T08:15:03;94954.89;;;10.98;96.76
59329;BME280;45100;46.926;7.452;2023-05-16T08:17:33;94954.81;;;11.03;97.23
59329;BME280;45100;46.926;7.452;2023-05-16T08:20:06;94953.02;;;11.10;97.02
59329;BME280;45100;46.926;7.452;2023-05-16T08:22:35;94952.41;;;11.12;96.27
59329;BME280;45100;46.926;7.452;2023-05-16T08:25:06;94952.33;;;11.11;96.50
59329;BME280;45100;46.926;7.452;2023-05-16T08:27:36;94950.38;;;11.09;95.60
59329;BME280;45100;46.926;7.452;2023-05-16T08:30:07;94952.02;;;11.10;96.08
59329;BME280;45100;46.926;7.452;2023-05-16T08:32:38;94952.37;;;11.12;95.58
59329;BME280;45100;46.926;7.452;2023-05-16T08:35:08;94956.34;;;11.12;93.87
59329;BME280;45100;46.926;7.452;2023-05-16T08:37:38;94952.85;;;11.12;93.80
59329;BME280;45100;46.926;7.452;2023-05-16T08:40:11;94959.52;;;11.14;92.46
59329;BME280;45100;46.926;7.452;2023-05-16T08:42:38;94965.97;;;11.16;93.06
59329;BME280;45100;46.926;7.452;2023-05-16T08:45:10;94969.84;;;11.18;92.53
59329;BME280;45100;46.926;7.452;2023-05-16T08:47:41;94978.88;;;11.19;90.38
59329;BME280;45100;46.926;7.452;2023-05-16T08:50:10;94967.72;;;11.15;87.77
59329;BME280;45100;46.926;7.452;2023-05-16T08:52:43;94965.91;;;11.08;87.26
59329;BME280;45100;46.926;7.452;2023-05-16T08:55:12;94964.70;;;11.03;88.93
59329;BME280;45100;46.926;7.452;2023-05-16T08:57:43;94967.83;;;11.02;86.68
59329;BME280;45100;46.926;7.452;2023-05-16T09:00:13;94974.81;;;10.98;85.80
59329;BME280;45100;46.926;7.452;2023-05-16T09:02:46;94968.73;;;10.99;86.93
59329;BME280;45100;46.926;7.452;2023-05-16T09:05:15;94970.32;;;11.01;86.77
59329;BME280;45100;46.926;7.452;2023-05-16T09:07:44;94964.09;;;11.03;86.84
59329;BME280;45100;46.926;7.452;2023-05-16T09:10:16;94966.23;;;11.08;87.60
59329;BME280;45100;46.926;7.452;2023-05-16T09:12:46;94969.03;;;11.14;87.04
59329;BME280;45100;46.926;7.452;2023-05-16T09:15:17;94972.49;;;11.16;86.29
59329;BME280;45100;46.926;7.452;2023-05-16T09:17:48;94974.98;;;11.16;86.21
59329;BME280;45100;46.926;7.452;2023-05-16T09:20:19;94973.84;;;11.16;85.34
59329;BME280;45100;46.926;7.452;2023-05-16T09:22:58;94968.73;;;11.16;86.40
59329;BME280;45100;46.926;7.452;2023-05-16T09:25:19;94968.96;;;11.20;85.48
59329;BME280;45100;46.926;7.452;2023-05-16T09:27:55;94967.27;;;11.21;84.72
59329;BME280;45100;46.926;7.452;2023-05-16T09:30:23;94969.78;;;11.24;85.13
59329;BME280;45100;46.926;7.452;2023-05-16T09:32:52;94964.51;;;11.30;85.86
59329;BME280;45100;46.926;7.452;2023-05-16T09:35:21;94972.53;;;11.35;85.21
59329;BME280;45100;46.926;7.452;2023-05-16T09:37:54;94974.09;;;11.38;84.94
59329;BME280;45100;46.926;7.452;2023-05-16T09:40:22;94979.20;;;11.34;84.30
59329;BME280;45100;46.926;7.452;2023-05-16T09:43:05;94981.44;;;11.27;85.75
59329;BME280;45100;46.926;7.452;2023-05-16T09:45:23;94990.19;;;11.20;86.33
59329;BME280;45100;46.926;7.452;2023-05-16T09:47:57;94983.64;;;11.14;86.55
59329;BME280;45100;46.926;7.452;2023-05-16T09:50:24;94988.73;;;11.09;86.56
59329;BME280;45100;46.926;7.452;2023-05-16T09:52:55;94993.59;;;11.06;86.85
59329;BME280;45100;46.926;7.452;2023-05-16T09:55:25;94996.58;;;11.05;86.99
59329;BME280;45100;46.926;7.452;2023-05-16T09:57:56;94992.84;;;11.05;86.93
59329;BME280;45100;46.926;7.452;2023-05-16T10:00:30;94987.70;;;11.06;87.72
59329;BME280;45100;46.926;7.452;2023-05-16T10:02:57;94983.41;;;11.15;88.72
59329;BME280;45100;46.926;7.452;2023-05-16T10:05:27;94981.80;;;11.27;89.18
59329;BME280;45100;46.926;7.452;2023-05-16T10:07:57;94991.98;;;11.35;87.57
59329;BME280;45100;46.926;7.452;2023-05-16T10:10:29;94996.89;;;11.38;87.15
59329;BME280;45100;46.926;7.452;2023-05-16T10:12:59;94992.84;;;11.34;85.72
59329;BME280;45100;46.926;7.452;2023-05-16T10:15:30;94994.48;;;11.27;86.96
59329;BME280;45100;46.926;7.452;2023-05-16T10:18:00;94997.34;;;11.21;87.12
59329;BME280;45100;46.926;7.452;2023-05-16T10:20:30;94999.84;;;11.19;88.11
59329;BME280;45100;46.926;7.452;2023-05-16T10:23:01;95002.61;;;11.24;88.38
59329;BME280;45100;46.926;7.452;2023-05-16T10:25:33;95001.80;;;11.26;86.78
59329;BME280;45100;46.926;7.452;2023-05-16T10:28:02;95005.07;;;11.28;86.89
59329;BME280;45100;46.926;7.452;2023-05-16T10:30:33;95007.72;;;11.26;86.09
59329;BME280;45100;46.926;7.452;2023-05-16T10:33:03;95007.72;;;11.22;85.58
59329;BME280;45100;46.926;7.452;2023-05-16T10:35:33;95009.13;;;11.18;86.06
59329;BME280;45100;46.926;7.452;2023-05-16T10:38:04;95013.70;;;11.18;86.56
59329;BME280;45100;46.926;7.452;2023-05-16T10:40:34;95028.31;;;11.20;85.75
59329;BME280;45100;46.926;7.452;2023-05-16T10:43:06;95019.86;;;11.14;84.89
59329;BME280;45100;46.926;7.452;2023-05-16T10:45:41;95008.38;;;11.05;85.13
59329;BME280;45100;46.926;7.452;2023-05-16T10:48:11;95005.98;;;11.04;87.00
59329;BME280;45100;46.926;7.452;2023-05-16T10:50:40;95009.69;;;11.13;86.43
59329;BME280;45100;46.926;7.452;2023-05-16T10:53:20;95003.05;;;11.27;85.42
59329;BME280;45100;46.926;7.452;2023-05-16T10:55:38;95004.23;;;11.46;84.22
59329;BME280;45100;46.926;7.452;2023-05-16T10:58:08;94994.34;;;11.62;83.24
59329;BME280;45100;46.926;7.452;2023-05-16T11:00:39;94990.83;;;11.83;84.54
59329;BME280;45100;46.926;7.452;2023-05-16T11:03:23;94993.00;;;12.07;81.08
59329;BME280;45100;46.926;7.452;2023-05-16T11:05:40;94991.05;;;12.19;79.54
59329;BME280;45100;46.926;7.452;2023-05-16T11:08:11;94997.28;;;12.31;80.12
59329;BME280;45100;46.926;7.452;2023-05-16T11:10:41;94997.15;;;12.43;79.23
59329;BME280;45100;46.926;7.452;2023-05-16T11:13:12;94996.34;;;12.45;80.19
59329;BME280;45100;46.926;7.452;2023-05-16T11:15:43;94998.53;;;12.44;79.22
59329;BME280;45100;46.926;7.452;2023-05-16T11:18:15;94994.14;;;12.32;79.28
59329;BME280;45100;46.926;7.452;2023-05-16T11:20:44;95004.98;;;12.20;79.61
59329;BME280;45100;46.926;7.452;2023-05-16T11:23:22;95010.11;;;12.08;80.33
59329;BME280;45100;46.926;7.452;2023-05-16T11:25:46;95008.77;;;11.94;80.73
59329;BME280;45100;46.926;7.452;2023-05-16T11:28:17;95004.62;;;11.79;81.67
59329;BME280;45100;46.926;7.452;2023-05-16T11:30:47;95007.45;;;11.65;81.94
59329;BME280;45100;46.926;7.452;2023-05-16T11:33:17;94996.16;;;11.55;83.50
59329;BME280;45100;46.926;7.452;2023-05-16T11:36:07;95002.30;;;11.50;83.62
59329;BME280;45100;46.926;7.452;2023-05-16T11:38:18;94999.44;;;11.47;82.82
59329;BME280;45100;46.926;7.452;2023-05-16T11:40:49;94999.70;;;11.44;82.40
59329;BME280;45100;46.926;7.452;2023-05-16T11:43:19;95006.28;;;11.46;82.90
59329;BME280;45100;46.926;7.452;2023-05-16T11:45:53;95002.91;;;11.50;81.81
59329;BME280;45100;46.926;7.452;2023-05-16T11:48:24;95002.67;;;11.55;82.47
59329;BME280;45100;46.926;7.452;2023-05-16T11:50:53;95006.52;;;11.61;79.80
59329;BME280;45100;46.926;7.452;2023-05-16T11:53:22;95005.23;;;11.64;80.17
59329;BME280;45100;46.926;7.452;2023-05-16T11:55:53;95004.81;;;11.66;80.87
59329;BME280;45100;46.926;7.452;2023-05-16T11:58:23;95001.67;;;11.68;80.29
59329;BME280;45100;46.926;7.452;2023-05-16T12:00:53;95003.03;;;11.72;81.61
59329;BME280;45100;46.926;7.452;2023-05-16T12:03:24;95003.86;;;11.78;79.51
59329;BME280;45100;46.926;7.452;2023-05-16T12:05:57;95011.18;;;11.84;80.27
59329;BME280;45100;46.926;7.452;2023-05-16T12:08:26;95014.77;;;11.86;79.26
59329;BME280;45100;46.926;7.452;2023-05-16T12:10:56;95022.03;;;11.84;78.45
59329;BME280;45100;46.926;7.452;2023-05-16T12:13:27;95023.56;;;11.79;79.16
59329;BME280;45100;46.926;7.452;2023-05-16T12:18:32;95019.92;;;11.77;80.19
59329;BME280;45100;46.926;7.452;2023-05-16T12:21:02;95024.16;;;11.79;79.97
59329;BME280;45100;46.926;7.452;2023-05-16T12:23:32;95024.62;;;11.75;80.42
59329;BME280;45100;46.926;7.452;2023-05-16T12:26:07;95027.06;;;11.69;81.17
59329;BME280;45100;46.926;7.452;2023-05-16T12:28:35;95019.63;;;11.68;82.42
59329;BME280;45100;46.926;7.452;2023-05-16T12:31:18;95023.53;;;11.68;81.42
59329;BME280;45100;46.926;7.452;2023-05-16T12:33:36;95029.64;;;11.66;81.13
59329;BME280;45100;46.926;7.452;2023-05-16T12:36:13;95039.71;;;11.66;81.89
59329;BME280;45100;46.926;7.452;2023-05-16T12:38:36;95048.48;;;11.62;81.45
59329;BME280;45100;46.926;7.452;2023-05-16T12:41:06;95039.74;;;11.58;81.83
59329;BME280;45100;46.926;7.452;2023-05-16T12:43:37;95042.23;;;11.60;82.12
59329;BME280;45100;46.926;7.452;2023-05-16T12:46:09;95033.28;;;11.65;82.00
59329;BME280;45100;46.926;7.452;2023-05-16T12:48:42;95044.14;;;11.70;81.67
59329;BME280;45100;46.926;7.452;2023-05-16T12:51:15;95044.73;;;11.75;81.26
59329;BME280;45100;46.926;7.452;2023-05-16T12:53:42;95046.03;;;11.75;81.60
59329;BME280;45100;46.926;7.452;2023-05-16T12:56:12;95050.82;;;11.73;82.43
59329;BME280;45100;46.926;7.452;2023-05-16T12:58:41;95053.52;;;11.73;81.39
59329;BME280;45100;46.926;7.452;2023-05-16T13:01:12;95062.38;;;11.74;81.45
59329;BME280;45100;46.926;7.452;2023-05-16T13:03:41;95063.27;;;11.73;80.73
59329;BME280;45100;46.926;7.452;2023-05-16T13:06:12;95068.34;;;11.73;80.64
59329;BME280;45100;46.926;7.452;2023-05-16T13:08:43;95064.79;;;11.70;80.62
59329;BME280;45100;46.926;7.452;2023-05-16T13:11:14;95061.56;;;11.68;81.91
59329;BME280;45100;46.926;7.452;2023-05-16T13:13:44;95059.71;;;11.68;81.99
59329;BME280;45100;46.926;7.452;2023-05-16T13:16:16;95063.50;;;11.75;81.54
59329;BME280;45100;46.926;7.452;2023-05-16T13:18:45;95063.88;;;11.73;81.10
59329;BME280;45100;46.926;7.452;2023-05-16T13:21:16;95063.75;;;11.67;81.78
59329;BME280;45100;46.926;7.452;2023-05-16T13:23:47;95062.09;;;11.65;81.60
59329;BME280;45100;46.926;7.452;2023-05-16T13:26:17;95069.41;;;11.61;81.80
59329;BME280;45100;46.926;7.452;2023-05-16T13:28:53;95075.19;;;11.55;82.51
59329;BME280;45100;46.926;7.452;2023-05-16T13:31:18;95072.58;;;11.52;82.74
59329;BME280;45100;46.926;7.452;2023-05-16T13:33:49;95076.52;;;11.50;82.37
59329;BME280;45100;46.926;7.452;2023-05-16T13:36:20;95071.70;;;11.46;82.37
59329;BME280;45100;46.926;7.452;2023-05-16T13:38:50;95073.81;;;11.39;82.74